GAF56S ETAR-LHBP
Flight info
| Callsign | GAF56S |
|---|---|
| Flight time | N/A |
| Altitude | 37000 |
| Route | RINEX DCT GEBNO DCT WLD DCT BIBAG DCT MAREG DCT ANEXA |
| Aircraft | A310/H-SDFGHIM1RTUWXY/LB1 |
Departure
| Time | 2026-04-24 12:23 |
|---|---|
| Airport | Ramstein Air Base (ETAR) |
Arrival
| Time | N/A |
|---|---|
| Airport | Budapest Liszt Ferenc International Airport (LHBP) |
| Time | Latitude | Longitude | Altitude | Speed | Heading |
|---|---|---|---|---|---|
| 2026-04-24 12:10 | 49.43953 | 7.58189 | 778 ft | 0 kts | 144° |
| 2026-04-24 12:20 | 49.43942 | 7.58212 | 778 ft | 8 kts | 126° |
| 2026-04-24 12:21 | 49.43883 | 7.58315 | 779 ft | 17 kts | 141° |
| 2026-04-24 12:21 | 49.43765 | 7.58371 | 779 ft | 21 kts | 170° |
| 2026-04-24 12:21 | 49.43607 | 7.58382 | 778 ft | 26 kts | 173° |
| 2026-04-24 12:21 | 49.43410 | 7.58400 | 776 ft | 31 kts | 177° |
| 2026-04-24 12:22 | 49.43312 | 7.58528 | 775 ft | 13 kts | 72° |
| 2026-04-24 12:22 | 49.43316 | 7.58568 | 775 ft | 15 kts | 81° |
| 2026-04-24 12:22 | 49.43359 | 7.59047 | 780 ft | 76 kts | 79° |
| 2026-04-24 12:22 | 49.43453 | 7.60133 | 781 ft | 129 kts | 82° |
| 2026-04-24 12:23 | 49.43606 | 7.61741 | 803 ft | 173 kts | 78° |
| 2026-04-24 12:23 | 49.43800 | 7.63719 | 995 ft | 196 kts | 80° |
| 2026-04-24 12:23 | 49.44004 | 7.65932 | 1263 ft | 227 kts | 80° |
| 2026-04-24 12:23 | 49.44225 | 7.68487 | 1488 ft | 264 kts | 84° |
| 2026-04-24 12:24 | 49.44319 | 7.71518 | 1904 ft | 293 kts | 86° |
| 2026-04-24 12:24 | 49.44831 | 7.74433 | 3348 ft | 275 kts | 54° |
| 2026-04-24 12:24 | 49.46029 | 7.76625 | 4982 ft | 264 kts | 45° |
| 2026-04-24 12:24 | 49.47297 | 7.78645 | 6218 ft | 262 kts | 44° |
| 2026-04-24 12:25 | 49.48569 | 7.80646 | 7301 ft | 265 kts | 44° |
| 2026-04-24 12:25 | 49.49858 | 7.82697 | 8241 ft | 269 kts | 44° |
| 2026-04-24 12:25 | 49.51177 | 7.84791 | 9223 ft | 273 kts | 44° |
| 2026-04-24 12:25 | 49.52512 | 7.86909 | 10162 ft | 279 kts | 44° |
| 2026-04-24 12:26 | 49.53769 | 7.89200 | 11006 ft | 285 kts | 62° |
| 2026-04-24 12:26 | 49.54232 | 7.92121 | 11841 ft | 291 kts | 88° |
| 2026-04-24 12:26 | 49.53866 | 7.95216 | 12538 ft | 300 kts | 109° |
| 2026-04-24 12:26 | 49.53039 | 7.98215 | 13183 ft | 309 kts | 115° |
| 2026-04-24 12:27 | 49.52083 | 8.01210 | 13943 ft | 314 kts | 116° |
| 2026-04-24 12:27 | 49.51126 | 8.04254 | 14627 ft | 318 kts | 115° |
| 2026-04-24 12:27 | 49.50152 | 8.07386 | 15149 ft | 330 kts | 115° |
| 2026-04-24 12:27 | 49.49159 | 8.10637 | 15607 ft | 343 kts | 114° |
| 2026-04-24 12:28 | 49.48140 | 8.14045 | 16046 ft | 356 kts | 114° |
| 2026-04-24 12:28 | 49.47093 | 8.17530 | 16697 ft | 362 kts | 114° |
| 2026-04-24 12:28 | 49.46020 | 8.21061 | 17413 ft | 366 kts | 114° |
| 2026-04-24 12:28 | 49.44941 | 8.24622 | 18121 ft | 370 kts | 114° |
| 2026-04-24 12:29 | 49.43852 | 8.28220 | 18792 ft | 373 kts | 114° |
| 2026-04-24 12:29 | 49.42750 | 8.31836 | 19396 ft | 375 kts | 115° |
| 2026-04-24 12:29 | 49.41621 | 8.35480 | 19972 ft | 379 kts | 115° |
| 2026-04-24 12:29 | 49.40492 | 8.39170 | 20549 ft | 383 kts | 115° |
| 2026-04-24 12:30 | 49.39343 | 8.42872 | 21105 ft | 386 kts | 115° |
| 2026-04-24 12:30 | 49.38193 | 8.46620 | 21661 ft | 389 kts | 115° |
| 2026-04-24 12:30 | 49.37041 | 8.50339 | 22172 ft | 393 kts | 115° |
| 2026-04-24 12:30 | 49.35849 | 8.54192 | 22739 ft | 396 kts | 115° |
| 2026-04-24 12:31 | 49.34682 | 8.57969 | 23243 ft | 399 kts | 115° |
| 2026-04-24 12:31 | 49.33491 | 8.61833 | 23736 ft | 402 kts | 115° |
| 2026-04-24 12:31 | 49.32482 | 8.65835 | 24174 ft | 404 kts | 104° |
| 2026-04-24 12:31 | 49.31931 | 8.70069 | 24563 ft | 407 kts | 98° |
| 2026-04-24 12:32 | 49.31528 | 8.74391 | 24967 ft | 410 kts | 98° |
| 2026-04-24 12:32 | 49.31103 | 8.78729 | 25366 ft | 413 kts | 99° |
| 2026-04-24 12:32 | 49.30624 | 8.83094 | 25774 ft | 415 kts | 100° |
| 2026-04-24 12:32 | 49.30102 | 8.87445 | 26258 ft | 415 kts | 100° |
| 2026-04-24 12:33 | 49.29568 | 8.91786 | 26730 ft | 414 kts | 101° |
| 2026-04-24 12:33 | 49.29030 | 8.96117 | 27214 ft | 414 kts | 101° |
| 2026-04-24 12:33 | 49.28493 | 9.00434 | 27692 ft | 412 kts | 100° |
| 2026-04-24 12:33 | 49.27959 | 9.04755 | 28065 ft | 414 kts | 100° |
| 2026-04-24 12:34 | 49.27441 | 9.09112 | 28349 ft | 417 kts | 100° |
| 2026-04-24 12:34 | 49.26898 | 9.13490 | 28634 ft | 421 kts | 101° |
| 2026-04-24 12:34 | 49.26343 | 9.17908 | 28894 ft | 424 kts | 100° |
| 2026-04-24 12:34 | 49.25808 | 9.22305 | 29159 ft | 427 kts | 100° |
| 2026-04-24 12:35 | 49.25254 | 9.26777 | 29441 ft | 430 kts | 100° |
| 2026-04-24 12:35 | 49.24683 | 9.31283 | 29758 ft | 432 kts | 100° |
| 2026-04-24 12:35 | 49.24123 | 9.35801 | 30074 ft | 434 kts | 100° |
| 2026-04-24 12:35 | 49.23539 | 9.40406 | 30362 ft | 436 kts | 100° |
| 2026-04-24 12:36 | 49.22974 | 9.44908 | 30628 ft | 437 kts | 100° |
| 2026-04-24 12:36 | 49.22396 | 9.49482 | 30880 ft | 439 kts | 100° |
| 2026-04-24 12:36 | 49.21813 | 9.54070 | 31155 ft | 440 kts | 101° |
| 2026-04-24 12:36 | 49.21228 | 9.58667 | 31406 ft | 441 kts | 100° |
| 2026-04-24 12:37 | 49.20649 | 9.63290 | 31648 ft | 443 kts | 101° |
| 2026-04-24 12:37 | 49.20048 | 9.67921 | 31881 ft | 445 kts | 101° |
| 2026-04-24 12:37 | 49.19440 | 9.72572 | 32099 ft | 447 kts | 100° |
| 2026-04-24 12:37 | 49.18852 | 9.77253 | 32325 ft | 449 kts | 100° |
| 2026-04-24 12:38 | 49.18243 | 9.81949 | 32535 ft | 451 kts | 101° |
| 2026-04-24 12:38 | 49.17623 | 9.86661 | 32748 ft | 453 kts | 100° |
| 2026-04-24 12:38 | 49.17009 | 9.91397 | 32960 ft | 455 kts | 101° |
| 2026-04-24 12:39 | 49.12314 | 10.03669 | 33513 ft | 461 kts | 134° |
| 2026-04-24 12:39 | 49.10115 | 10.07240 | 33720 ft | 462 kts | 131° |
| 2026-04-24 12:39 | 49.08066 | 10.11022 | 33935 ft | 463 kts | 127° |
| 2026-04-24 12:40 | 49.06164 | 10.14913 | 34112 ft | 465 kts | 126° |
| 2026-04-24 12:40 | 49.02351 | 10.23006 | 34325 ft | 472 kts | 125° |
| 2026-04-24 12:40 | 49.00411 | 10.27052 | 34500 ft | 474 kts | 126° |
| 2026-04-24 12:41 | 48.98451 | 10.31100 | 34675 ft | 476 kts | 126° |
| 2026-04-24 12:41 | 48.96481 | 10.35159 | 34862 ft | 477 kts | 126° |
| 2026-04-24 12:41 | 48.94511 | 10.39221 | 35015 ft | 479 kts | 126° |
| 2026-04-24 12:41 | 48.92528 | 10.43305 | 35182 ft | 480 kts | 126° |
| 2026-04-24 12:42 | 48.90541 | 10.47393 | 35345 ft | 482 kts | 126° |
| 2026-04-24 12:42 | 48.88528 | 10.51468 | 35475 ft | 484 kts | 126° |
| 2026-04-24 12:42 | 48.86505 | 10.55584 | 35659 ft | 485 kts | 126° |
| 2026-04-24 12:42 | 48.84494 | 10.59701 | 35811 ft | 486 kts | 126° |
| 2026-04-24 12:43 | 48.82480 | 10.63814 | 35945 ft | 488 kts | 126° |
| 2026-04-24 12:43 | 48.80431 | 10.67945 | 36104 ft | 489 kts | 126° |
| 2026-04-24 12:43 | 48.78394 | 10.72088 | 36268 ft | 490 kts | 126° |
| 2026-04-24 12:43 | 48.76350 | 10.76239 | 36488 ft | 489 kts | 127° |
| 2026-04-24 12:44 | 48.74306 | 10.80334 | 36769 ft | 487 kts | 126° |
| 2026-04-24 12:44 | 48.72299 | 10.84400 | 36935 ft | 488 kts | 126° |
| 2026-04-24 12:44 | 48.70266 | 10.88519 | 37053 ft | 489 kts | 127° |
| 2026-04-24 12:45 | 48.66162 | 10.96768 | 37152 ft | 490 kts | 126° |
| 2026-04-24 12:45 | 48.62063 | 11.04980 | 37152 ft | 488 kts | 126° |
| 2026-04-24 12:46 | 48.58003 | 11.13200 | 37154 ft | 488 kts | 121° |
| 2026-04-24 12:46 | 48.56583 | 11.17782 | 37203 ft | 481 kts | 102° |
| 2026-04-24 12:46 | 48.56133 | 11.22739 | 37192 ft | 478 kts | 90° |
| 2026-04-24 12:47 | 48.55882 | 11.32827 | 37157 ft | 482 kts | 94° |
| 2026-04-24 12:47 | 48.54910 | 11.42851 | 37151 ft | 483 kts | 98° |
| 2026-04-24 12:48 | 48.53726 | 11.52836 | 37152 ft | 483 kts | 98° |
| 2026-04-24 12:48 | 48.52825 | 11.61148 | 37171 ft | 483 kts | 97° |
| 2026-04-24 12:49 | 48.51730 | 11.71149 | 37168 ft | 483 kts | 98° |
| 2026-04-24 12:49 | 48.50638 | 11.81140 | 37159 ft | 483 kts | 98° |
| 2026-04-24 12:50 | 48.49520 | 11.91121 | 37160 ft | 483 kts | 97° |
| 2026-04-24 12:50 | 48.48402 | 12.01089 | 37163 ft | 482 kts | 97° |
| 2026-04-24 12:51 | 48.47284 | 12.10991 | 37159 ft | 482 kts | 97° |
| 2026-04-24 12:51 | 48.46144 | 12.20961 | 37158 ft | 482 kts | 97° |
| 2026-04-24 12:52 | 48.45011 | 12.30896 | 37153 ft | 481 kts | 98° |
| 2026-04-24 12:52 | 48.43865 | 12.40843 | 37148 ft | 481 kts | 97° |
| 2026-04-24 12:53 | 48.42703 | 12.50768 | 37149 ft | 481 kts | 97° |
| 2026-04-24 12:53 | 48.41537 | 12.60699 | 37145 ft | 482 kts | 98° |
| 2026-04-24 12:54 | 48.40369 | 12.70636 | 37154 ft | 481 kts | 97° |
| 2026-04-24 12:54 | 48.39421 | 12.80520 | 37147 ft | 479 kts | 91° |
| 2026-04-24 12:55 | 48.39203 | 12.90527 | 37141 ft | 478 kts | 89° |
| 2026-04-24 12:55 | 48.38962 | 13.00542 | 37136 ft | 478 kts | 90° |
| 2026-04-24 12:56 | 48.38607 | 13.10542 | 37139 ft | 478 kts | 90° |
| 2026-04-24 12:56 | 48.38288 | 13.20547 | 37126 ft | 479 kts | 90° |
| 2026-04-24 12:57 | 48.37948 | 13.30476 | 37133 ft | 478 kts | 90° |
| 2026-04-24 12:57 | 48.37596 | 13.40479 | 37128 ft | 478 kts | 90° |
| 2026-04-24 12:58 | 48.37232 | 13.50465 | 37137 ft | 477 kts | 90° |
| 2026-04-24 12:58 | 48.36863 | 13.60442 | 37130 ft | 477 kts | 90° |
| 2026-04-24 12:59 | 48.36493 | 13.70362 | 37125 ft | 477 kts | 90° |
| 2026-04-24 12:59 | 48.36113 | 13.80307 | 37117 ft | 477 kts | 90° |
| 2026-04-24 13:00 | 48.35713 | 13.90281 | 37117 ft | 476 kts | 90° |
| 2026-04-24 13:00 | 48.35315 | 14.00234 | 37103 ft | 477 kts | 90° |
| 2026-04-24 13:01 | 48.34899 | 14.10183 | 37108 ft | 477 kts | 90° |
| 2026-04-24 13:01 | 48.34493 | 14.20123 | 37089 ft | 476 kts | 90° |
| 2026-04-24 13:02 | 48.34061 | 14.30060 | 37111 ft | 476 kts | 90° |
| 2026-04-24 13:02 | 48.33626 | 14.39991 | 37105 ft | 476 kts | 90° |
| 2026-04-24 13:03 | 48.33191 | 14.49913 | 37093 ft | 476 kts | 90° |
| 2026-04-24 13:03 | 48.32733 | 14.59840 | 37097 ft | 475 kts | 90° |
| 2026-04-24 13:04 | 48.32270 | 14.69747 | 37105 ft | 475 kts | 90° |
| 2026-04-24 13:04 | 48.31794 | 14.79594 | 37087 ft | 475 kts | 90° |
| 2026-04-24 13:05 | 48.31321 | 14.89486 | 37092 ft | 474 kts | 90° |
| 2026-04-24 13:05 | 48.30835 | 14.99362 | 37087 ft | 474 kts | 90° |
| 2026-04-24 13:06 | 48.30340 | 15.09238 | 37090 ft | 474 kts | 90° |
| 2026-04-24 13:06 | 48.29834 | 15.19121 | 37078 ft | 474 kts | 90° |
| 2026-04-24 13:07 | 48.29323 | 15.29002 | 37077 ft | 474 kts | 90° |
| 2026-04-24 13:07 | 48.28801 | 15.38866 | 37076 ft | 474 kts | 90° |
| 2026-04-24 13:08 | 48.28271 | 15.48660 | 37075 ft | 474 kts | 90° |
| 2026-04-24 13:08 | 48.27727 | 15.58534 | 37071 ft | 474 kts | 90° |
| 2026-04-24 13:09 | 48.26905 | 15.73335 | 37066 ft | 473 kts | 90° |
| 2026-04-24 13:09 | 48.26348 | 15.83175 | 37073 ft | 473 kts | 90° |
| 2026-04-24 13:10 | 48.25787 | 15.92954 | 37060 ft | 473 kts | 90° |
| 2026-04-24 13:10 | 48.25215 | 16.02782 | 37063 ft | 473 kts | 90° |
| 2026-04-24 13:11 | 48.24640 | 16.12643 | 37059 ft | 473 kts | 90° |
| 2026-04-24 13:11 | 48.24056 | 16.22474 | 37069 ft | 473 kts | 90° |
| 2026-04-24 13:12 | 48.23471 | 16.32307 | 37057 ft | 473 kts | 90° |
| 2026-04-24 13:12 | 48.22876 | 16.42129 | 37057 ft | 473 kts | 90° |
| 2026-04-24 13:13 | 48.22256 | 16.51952 | 37047 ft | 473 kts | 90° |
| 2026-04-24 13:13 | 48.21630 | 16.61775 | 37046 ft | 473 kts | 90° |
| 2026-04-24 13:14 | 48.21001 | 16.71601 | 37040 ft | 473 kts | 90° |
| 2026-04-24 13:14 | 48.20365 | 16.81353 | 37043 ft | 473 kts | 90° |
| 2026-04-24 13:15 | 48.19718 | 16.91155 | 37033 ft | 473 kts | 90° |
| 2026-04-24 13:15 | 48.18743 | 17.00925 | 37045 ft | 479 kts | 102° |
| 2026-04-24 13:16 | 48.16337 | 17.10342 | 37031 ft | 485 kts | 106° |
| 2026-04-24 13:16 | 48.14111 | 17.19843 | 37031 ft | 482 kts | 102° |
| 2026-04-24 13:17 | 48.12103 | 17.29422 | 37018 ft | 482 kts | 102° |
| 2026-04-24 13:17 | 48.10077 | 17.38918 | 37025 ft | 482 kts | 103° |
| 2026-04-24 13:18 | 48.07989 | 17.48459 | 37025 ft | 482 kts | 102° |
| 2026-04-24 13:18 | 48.05901 | 17.57986 | 37033 ft | 482 kts | 103° |
| 2026-04-24 13:19 | 48.03806 | 17.67518 | 37037 ft | 482 kts | 103° |
| 2026-04-24 13:19 | 48.01723 | 17.76962 | 37041 ft | 482 kts | 103° |
| 2026-04-24 13:20 | 47.99617 | 17.86456 | 37039 ft | 482 kts | 103° |
| 2026-04-24 13:20 | 47.97506 | 17.95954 | 37037 ft | 482 kts | 103° |
| 2026-04-24 13:21 | 47.95391 | 18.05407 | 36971 ft | 476 kts | 103° |
| 2026-04-24 13:21 | 47.94339 | 18.10081 | 36413 ft | 474 kts | 103° |
| 2026-04-24 13:21 | 47.93281 | 18.14723 | 35838 ft | 472 kts | 103° |
| 2026-04-24 13:22 | 47.92227 | 18.19353 | 35274 ft | 469 kts | 103° |
| 2026-04-24 13:22 | 47.91188 | 18.23944 | 34722 ft | 467 kts | 103° |
| 2026-04-24 13:22 | 47.90159 | 18.28518 | 34226 ft | 463 kts | 103° |
| 2026-04-24 13:22 | 47.89148 | 18.33053 | 33738 ft | 458 kts | 103° |
| 2026-04-24 13:23 | 47.88135 | 18.37576 | 32855 ft | 462 kts | 104° |
| 2026-04-24 13:23 | 47.87105 | 18.42083 | 32308 ft | 458 kts | 104° |
| 2026-04-24 13:23 | 47.86080 | 18.46554 | 31465 ft | 459 kts | 105° |
| 2026-04-24 13:23 | 47.84703 | 18.50972 | 30217 ft | 480 kts | 124° |
| 2026-04-24 13:24 | 47.82402 | 18.54458 | 29586 ft | 480 kts | 142° |
| 2026-04-24 13:24 | 47.79410 | 18.56773 | 28671 ft | 481 kts | 159° |
| 2026-04-24 13:24 | 47.76294 | 18.58380 | 27822 ft | 477 kts | 158° |
| 2026-04-24 13:24 | 47.73292 | 18.60347 | 27290 ft | 464 kts | 150° |
| 2026-04-24 13:25 | 47.70573 | 18.62685 | 27183 ft | 444 kts | 145° |
| 2026-04-24 13:25 | 47.68071 | 18.65291 | 26596 ft | 434 kts | 135° |
| 2026-04-24 13:25 | 47.66008 | 18.68497 | 25906 ft | 427 kts | 126° |
| 2026-04-24 13:25 | 47.64162 | 18.71916 | 25243 ft | 423 kts | 125° |
| 2026-04-24 13:26 | 47.62312 | 18.75301 | 24604 ft | 420 kts | 127° |
| 2026-04-24 13:26 | 47.60407 | 18.78584 | 23990 ft | 418 kts | 129° |
| 2026-04-24 13:26 | 47.58475 | 18.81780 | 23322 ft | 415 kts | 129° |
| 2026-04-24 13:26 | 47.56542 | 18.84932 | 22620 ft | 411 kts | 129° |
| 2026-04-24 13:27 | 47.54624 | 18.88051 | 21965 ft | 407 kts | 129° |
| 2026-04-24 13:27 | 47.52745 | 18.91098 | 21303 ft | 404 kts | 129° |
| 2026-04-24 13:27 | 47.50862 | 18.94158 | 20693 ft | 400 kts | 129° |
| 2026-04-24 13:27 | 47.49004 | 18.97178 | 20235 ft | 391 kts | 130° |
| 2026-04-24 13:28 | 47.47224 | 19.00060 | 20232 ft | 370 kts | 129° |
| 2026-04-24 13:28 | 47.45534 | 19.02825 | 19969 ft | 358 kts | 129° |
| 2026-04-24 13:28 | 47.43873 | 19.05547 | 19466 ft | 355 kts | 129° |
| 2026-04-24 13:28 | 47.42217 | 19.08223 | 18946 ft | 352 kts | 129° |
| 2026-04-24 13:29 | 47.40567 | 19.10885 | 18446 ft | 349 kts | 129° |
| 2026-04-24 13:29 | 47.38933 | 19.13521 | 17897 ft | 346 kts | 129° |
| 2026-04-24 13:29 | 47.37335 | 19.16104 | 17331 ft | 344 kts | 129° |
| 2026-04-24 13:29 | 47.36663 | 19.17195 | 17108 ft | 343 kts | 129° |
| 2026-04-24 13:35 | 47.35391 | 19.19248 | 17825 ft | 291 kts | 129° |
| 2026-04-24 13:35 | 47.34105 | 19.21330 | 18939 ft | 269 kts | 128° |
| 2026-04-24 13:36 | 47.32849 | 19.23374 | 18294 ft | 283 kts | 128° |
| 2026-04-24 13:36 | 47.31397 | 19.25752 | 17307 ft | 327 kts | 129° |
| 2026-04-24 13:36 | 47.29901 | 19.28171 | 16957 ft | 325 kts | 129° |
| 2026-04-24 13:36 | 47.28349 | 19.30686 | 16088 ft | 336 kts | 130° |
| 2026-04-24 13:37 | 47.26789 | 19.33205 | 15824 ft | 322 kts | 130° |
| 2026-04-24 13:37 | 47.25306 | 19.35580 | 15377 ft | 314 kts | 128° |
| 2026-04-24 13:37 | 47.24222 | 19.38364 | 14407 ft | 314 kts | 96° |
| 2026-04-24 13:37 | 47.24240 | 19.41460 | 13816 ft | 299 kts | 68° |
| 2026-04-24 13:38 | 47.25230 | 19.44056 | 13090 ft | 289 kts | 46° |
| 2026-04-24 13:38 | 47.26627 | 19.46176 | 12416 ft | 286 kts | 37° |
| 2026-04-24 13:38 | 47.27713 | 19.47211 | 11950 ft | 278 kts | 15° |
| 2026-04-24 13:38 | 47.30176 | 19.47195 | 11154 ft | 266 kts | 334° |
| 2026-04-24 13:39 | 47.31233 | 19.46293 | 10738 ft | 266 kts | 324° |
| 2026-04-24 13:39 | 47.32646 | 19.44540 | 10150 ft | 265 kts | 318° |
| 2026-04-24 13:39 | 47.33956 | 19.42641 | 9542 ft | 262 kts | 315° |
| 2026-04-24 13:39 | 47.35217 | 19.40706 | 8906 ft | 261 kts | 315° |
| 2026-04-24 13:40 | 47.36858 | 19.38132 | 8108 ft | 258 kts | 314° |
| 2026-04-24 13:40 | 47.37383 | 19.37291 | 7820 ft | 260 kts | 314° |